createdAt,value
2018-12-27T00:01:35.730Z,39.97
2018-12-27T00:04:04.930Z,40.60
2018-12-27T00:06:34.049Z,31.83
2018-12-27T00:09:04.732Z,35.03
2018-12-27T00:11:33.896Z,33.50
2018-12-27T00:14:03.076Z,36.40
2018-12-27T00:16:32.323Z,34.10
2018-12-27T00:19:02.041Z,37.37
2018-12-27T00:21:31.166Z,33.87
2018-12-27T00:24:00.309Z,34.27
2018-12-27T00:26:29.500Z,35.03
2018-12-27T00:28:58.698Z,32.03
2018-12-27T00:31:27.849Z,35.13
2018-12-27T00:33:57.141Z,32.93
2018-12-27T00:36:26.436Z,32.53
2018-12-27T00:38:55.681Z,37.00
2018-12-27T00:41:24.796Z,30.73
2018-12-27T00:43:53.913Z,31.13
2018-12-27T00:46:23.317Z,31.07
2018-12-27T00:48:52.511Z,32.90
2018-12-27T00:51:21.704Z,33.63
2018-12-27T00:53:50.930Z,31.13
2018-12-27T00:56:20.077Z,37.20
2018-12-27T00:58:49.370Z,29.67
2018-12-27T01:01:18.659Z,33.73
2018-12-27T01:03:47.928Z,35.83
2018-12-27T01:06:17.256Z,34.43
2018-12-27T01:08:46.460Z,34.53
2018-12-27T01:11:15.804Z,29.07
2018-12-27T01:13:44.936Z,29.60
2018-12-27T01:16:14.461Z,27.77
2018-12-27T01:18:43.608Z,27.27
2018-12-27T01:21:12.820Z,29.33
2018-12-27T01:23:41.952Z,33.50
2018-12-27T01:26:11.169Z,27.37
2018-12-27T01:28:40.382Z,31.27
2018-12-27T01:31:09.577Z,28.70
2018-12-27T01:33:38.767Z,30.20
2018-12-27T01:36:07.985Z,29.23
2018-12-27T01:38:37.196Z,31.07
2018-12-27T01:41:06.396Z,27.50
2018-12-27T01:43:35.613Z,31.37
2018-12-27T01:46:05.273Z,29.43
2018-12-27T01:48:34.572Z,31.60
2018-12-27T01:51:03.848Z,27.40
2018-12-27T01:53:32.994Z,30.83
2018-12-27T01:56:02.132Z,31.87
2018-12-27T01:58:31.347Z,27.83
2018-12-27T02:01:00.541Z,29.10
2018-12-27T02:03:29.824Z,28.30
2018-12-27T02:05:59.067Z,25.80
2018-12-27T02:08:28.324Z,26.07
2018-12-27T02:10:57.475Z,26.10
2018-12-27T02:13:26.721Z,29.17
2018-12-27T02:15:55.988Z,25.70
2018-12-27T02:18:25.124Z,25.37
2018-12-27T02:20:54.409Z,24.40
2018-12-27T02:23:23.764Z,26.53
2018-12-27T02:25:53.205Z,23.83
2018-12-27T02:28:22.340Z,21.03
2018-12-27T02:30:51.541Z,22.17
2018-12-27T02:33:20.714Z,21.87
2018-12-27T02:35:49.942Z,24.07
2018-12-27T02:38:19.152Z,23.00
2018-12-27T02:40:48.311Z,26.37
2018-12-27T02:43:17.418Z,19.53
2018-12-27T02:45:46.613Z,23.07
2018-12-27T02:48:16.184Z,17.57
2018-12-27T02:50:45.373Z,17.33
2018-12-27T02:53:14.564Z,16.67
2018-12-27T02:55:43.786Z,19.80
2018-12-27T02:58:12.980Z,17.80
2018-12-27T03:00:42.101Z,17.70
2018-12-27T03:03:11.304Z,14.83
2018-12-27T03:05:40.493Z,12.87
2018-12-27T03:08:09.622Z,15.33
2018-12-27T03:10:38.849Z,14.90
2018-12-27T03:13:08.088Z,13.53
2018-12-27T03:15:37.322Z,16.07
2018-12-27T03:18:06.631Z,15.27
2018-12-27T03:20:35.868Z,14.10
2018-12-27T03:23:05.061Z,14.37
2018-12-27T03:25:34.242Z,13.57
2018-12-27T03:28:03.374Z,13.40
2018-12-27T03:30:32.630Z,12.53
2018-12-27T03:33:01.800Z,14.90
2018-12-27T03:35:30.996Z,15.20
2018-12-27T03:38:00.212Z,14.53
2018-12-27T03:40:29.784Z,15.17
2018-12-27T03:42:58.981Z,16.57
2018-12-27T03:45:28.112Z,15.47
2018-12-27T03:47:57.392Z,13.37
2018-12-27T03:50:26.982Z,14.60
2018-12-27T03:52:56.100Z,13.87
2018-12-27T03:55:25.374Z,14.57
2018-12-27T03:57:54.582Z,13.60
2018-12-27T04:00:23.810Z,14.73
2018-12-27T04:02:52.926Z,13.97
2018-12-27T04:05:22.111Z,13.27
2018-12-27T04:07:51.330Z,15.13
2018-12-27T04:10:20.452Z,13.83
2018-12-27T04:12:49.657Z,14.40
2018-12-27T04:15:18.769Z,14.90
2018-12-27T04:17:47.934Z,14.33
2018-12-27T04:20:17.032Z,12.23
2018-12-27T04:22:46.155Z,14.23
2018-12-27T04:25:15.359Z,13.70
2018-12-27T04:27:44.484Z,13.97
2018-12-27T04:30:13.604Z,13.40
2018-12-27T04:32:43.930Z,11.87
2018-12-27T04:35:13.142Z,15.10
2018-12-27T04:37:42.336Z,12.10
2018-12-27T04:40:11.445Z,13.10
2018-12-27T04:42:40.606Z,12.67
2018-12-27T04:45:09.709Z,13.43
2018-12-27T04:47:38.848Z,12.73
2018-12-27T04:50:07.962Z,14.87
2018-12-27T04:52:37.073Z,11.90
2018-12-27T04:55:06.224Z,14.57
2018-12-27T04:57:35.322Z,15.90
2018-12-27T05:00:04.577Z,15.00
2018-12-27T05:02:33.740Z,15.43
2018-12-27T05:05:02.921Z,16.90
2018-12-27T05:07:32.676Z,18.17
2018-12-27T05:10:01.821Z,18.53
2018-12-27T05:12:30.926Z,20.67
2018-12-27T05:15:00.085Z,16.73
2018-12-27T05:17:29.613Z,18.43
2018-12-27T05:19:58.716Z,16.30
2018-12-27T05:22:27.847Z,14.73
2018-12-27T05:24:56.998Z,17.00
2018-12-27T05:27:26.105Z,16.10
2018-12-27T05:29:55.212Z,15.03
2018-12-27T05:32:24.372Z,16.13
2018-12-27T05:34:53.516Z,16.67
2018-12-27T05:37:22.641Z,16.73
2018-12-27T05:39:51.813Z,17.93
2018-12-27T05:42:24.131Z,17.27
2018-12-27T05:44:53.232Z,15.57
2018-12-27T05:47:22.640Z,14.97
2018-12-27T05:49:51.741Z,14.33
2018-12-27T05:52:20.845Z,13.90
2018-12-27T05:54:50.065Z,15.87
2018-12-27T05:57:20.756Z,15.60
2018-12-27T05:59:49.896Z,14.30
2018-12-27T06:02:19.029Z,12.17
2018-12-27T06:04:48.253Z,13.03
2018-12-27T06:07:17.364Z,13.97
2018-12-27T06:09:46.497Z,14.83
2018-12-27T06:12:15.601Z,12.80
2018-12-27T06:14:44.712Z,16.07
2018-12-27T06:17:13.840Z,13.77
2018-12-27T06:19:42.944Z,15.00
2018-12-27T06:22:12.059Z,13.43
2018-12-27T06:24:41.277Z,14.30
2018-12-27T06:27:10.376Z,15.63
2018-12-27T06:29:39.838Z,16.57
2018-12-27T06:32:09.008Z,14.03
2018-12-27T06:34:41.567Z,16.10
2018-12-27T06:37:08.977Z,15.07
2018-12-27T06:39:38.111Z,13.70
2018-12-27T06:42:07.208Z,14.50
2018-12-27T06:44:36.353Z,12.67
2018-12-27T06:47:05.504Z,15.00
2018-12-27T06:49:34.640Z,14.53
2018-12-27T06:52:03.740Z,13.60
2018-12-27T06:54:32.844Z,14.57
2018-12-27T06:57:01.977Z,13.80
2018-12-27T06:59:31.084Z,18.10
2018-12-27T07:02:00.269Z,15.50
2018-12-27T07:04:29.421Z,14.50
2018-12-27T07:06:58.531Z,13.53
2018-12-27T07:09:27.680Z,14.27
2018-12-27T07:11:56.992Z,14.10
2018-12-27T07:14:26.100Z,16.37
2018-12-27T07:16:55.261Z,16.40
2018-12-27T07:19:24.408Z,14.13
2018-12-27T07:21:53.621Z,16.63
2018-12-27T07:24:22.788Z,14.37
2018-12-27T07:26:51.945Z,14.10
2018-12-27T07:29:21.364Z,15.20
2018-12-27T07:31:50.488Z,17.13
2018-12-27T07:34:19.594Z,14.27
2018-12-27T07:36:48.728Z,14.57
2018-12-27T07:39:17.827Z,19.07
2018-12-27T07:41:46.923Z,15.80
2018-12-27T07:44:17.452Z,16.00
2018-12-27T07:46:46.987Z,16.37
2018-12-27T07:49:16.090Z,14.83
2018-12-27T07:51:45.229Z,15.43
2018-12-27T07:54:14.393Z,15.43
2018-12-27T07:56:43.524Z,16.20
2018-12-27T07:59:12.648Z,18.00
2018-12-27T08:01:41.772Z,14.50
2018-12-27T08:04:10.880Z,19.50
2018-12-27T08:06:40.041Z,18.53
2018-12-27T08:09:09.239Z,13.97
2018-12-27T08:11:38.338Z,16.13
2018-12-27T08:14:07.529Z,18.07
2018-12-27T08:16:36.668Z,15.20
2018-12-27T08:19:05.817Z,18.20
2018-12-27T08:21:34.947Z,18.37
2018-12-27T08:24:04.120Z,19.63
2018-12-27T08:26:33.640Z,17.37
2018-12-27T08:29:02.760Z,15.70
2018-12-27T08:31:31.860Z,17.03
2018-12-27T08:34:01.214Z,18.37
2018-12-27T08:36:30.360Z,19.13
2018-12-27T08:38:59.485Z,16.77
2018-12-27T08:41:28.610Z,19.73
2018-12-27T08:43:57.734Z,18.17
2018-12-27T08:46:27.229Z,18.77
2018-12-27T08:48:56.358Z,17.63
2018-12-27T08:51:25.557Z,18.67
2018-12-27T08:53:54.789Z,17.87
2018-12-27T08:56:23.923Z,18.67
2018-12-27T08:58:53.100Z,20.17
2018-12-27T09:01:22.229Z,20.50
2018-12-27T09:03:51.385Z,19.77
2018-12-27T09:06:20.577Z,20.43
2018-12-27T09:08:49.763Z,17.87
2018-12-27T09:11:19.070Z,19.33
2018-12-27T09:13:48.209Z,23.93
2018-12-27T09:16:17.340Z,18.33
2018-12-27T09:18:46.474Z,19.37
2018-12-27T09:21:16.082Z,20.40
2018-12-27T09:23:45.197Z,19.23
2018-12-27T09:26:14.517Z,19.47
2018-12-27T09:28:44.383Z,19.13
2018-12-27T09:31:13.705Z,19.13
2018-12-27T09:33:42.828Z,17.40
2018-12-27T09:36:11.968Z,17.27
2018-12-27T09:38:41.117Z,21.57
2018-12-27T09:41:10.252Z,17.43
2018-12-27T09:43:39.388Z,18.07
2018-12-27T09:46:08.513Z,21.40
2018-12-27T09:48:37.733Z,15.93
2018-12-27T09:51:06.929Z,18.40
2018-12-27T09:53:36.533Z,18.70
2018-12-27T09:56:06.173Z,21.70
2018-12-27T09:58:35.308Z,15.70
2018-12-27T10:01:04.637Z,17.07
2018-12-27T10:03:33.828Z,19.10
2018-12-27T10:06:04.534Z,18.03
2018-12-27T10:08:33.853Z,17.07
2018-12-27T10:11:03.005Z,18.43
2018-12-27T10:13:34.252Z,18.87
2018-12-27T10:16:03.378Z,16.40
2018-12-27T10:18:32.512Z,19.50
2018-12-27T10:21:01.734Z,20.03
2018-12-27T10:23:30.849Z,18.83
2018-12-27T10:26:00.021Z,19.03
2018-12-27T10:28:29.162Z,20.47
2018-12-27T10:30:59.890Z,20.40
2018-12-27T10:33:29.179Z,17.20
2018-12-27T10:35:58.328Z,21.97
2018-12-27T10:38:27.441Z,16.70
2018-12-27T10:40:56.568Z,19.87
2018-12-27T10:43:25.730Z,20.37
2018-12-27T10:45:57.701Z,19.40
2018-12-27T10:48:26.805Z,18.73
2018-12-27T10:50:56.041Z,17.87
2018-12-27T10:53:25.187Z,17.97
2018-12-27T10:55:54.300Z,22.47
2018-12-27T10:58:23.484Z,16.37
2018-12-27T11:00:52.617Z,20.60
2018-12-27T11:03:21.800Z,18.57
2018-12-27T11:05:51.265Z,17.27
2018-12-27T11:08:20.401Z,18.13
2018-12-27T11:10:49.558Z,19.37
2018-12-27T11:13:19.062Z,17.87
2018-12-27T11:15:48.201Z,20.27
2018-12-27T11:18:17.314Z,18.80
2018-12-27T11:20:46.464Z,24.07
2018-12-27T11:23:15.664Z,17.20
2018-12-27T11:25:44.780Z,16.20
2018-12-27T11:28:14.209Z,17.40
2018-12-27T11:30:43.326Z,19.53
2018-12-27T11:33:12.484Z,17.90
2018-12-27T11:35:41.649Z,14.90
2018-12-27T11:38:12.949Z,17.07
2018-12-27T11:40:42.085Z,17.67
2018-12-27T11:43:11.286Z,16.33
2018-12-27T11:45:42.012Z,18.60
2018-12-27T11:48:13.231Z,16.20
2018-12-27T11:50:42.356Z,17.53
2018-12-27T11:53:11.535Z,17.30
2018-12-27T11:55:40.741Z,16.50
2018-12-27T11:58:09.931Z,18.07
2018-12-27T12:00:39.108Z,15.67
2018-12-27T12:03:08.304Z,14.60
2018-12-27T12:05:38.453Z,15.93
2018-12-27T12:08:07.577Z,16.70
2018-12-27T12:10:36.709Z,15.13
2018-12-27T12:13:05.848Z,16.17
2018-12-27T12:15:34.968Z,14.90
2018-12-27T12:18:04.080Z,16.57
2018-12-27T12:20:33.264Z,15.00
2018-12-27T12:23:02.440Z,16.10
2018-12-27T12:25:31.587Z,16.70
2018-12-27T12:28:00.702Z,15.13
2018-12-27T12:30:29.956Z,15.27
2018-12-27T12:32:59.104Z,13.93
2018-12-27T12:35:28.248Z,15.40
2018-12-27T12:37:57.450Z,17.37
2018-12-27T12:40:27.016Z,14.23
2018-12-27T12:42:56.158Z,14.30
2018-12-27T12:45:25.285Z,13.80
2018-12-27T12:47:54.437Z,13.50
2018-12-27T12:50:23.570Z,12.57
2018-12-27T12:52:52.687Z,13.90
2018-12-27T12:55:21.994Z,15.80
2018-12-27T12:57:51.139Z,14.97
2018-12-27T13:00:20.260Z,13.17
2018-12-27T13:02:49.449Z,11.80
2018-12-27T13:05:18.580Z,12.40
2018-12-27T13:07:47.717Z,12.33
2018-12-27T13:10:16.902Z,13.17
2018-12-27T13:12:46.081Z,12.50
2018-12-27T13:15:15.576Z,12.20
2018-12-27T13:17:44.709Z,13.47
2018-12-27T13:20:13.827Z,13.77
2018-12-27T13:22:42.972Z,13.80
2018-12-27T13:25:12.137Z,11.20
2018-12-27T13:27:42.344Z,17.23
2018-12-27T13:30:11.508Z,12.53
2018-12-27T13:32:40.618Z,11.97
2018-12-27T13:35:13.272Z,12.73
2018-12-27T13:37:42.424Z,12.53
2018-12-27T13:40:11.584Z,12.67
2018-12-27T13:42:40.723Z,13.03
2018-12-27T13:45:09.815Z,15.03
2018-12-27T13:47:38.960Z,15.07
2018-12-27T13:50:08.317Z,13.80
2018-12-27T13:52:37.550Z,13.13
2018-12-27T13:55:06.938Z,14.17
2018-12-27T13:57:36.068Z,14.97
2018-12-27T14:00:05.686Z,12.27
2018-12-27T14:02:34.904Z,12.80
2018-12-27T14:05:04.056Z,14.57
2018-12-27T14:07:33.580Z,14.03
2018-12-27T14:10:02.780Z,13.90
2018-12-27T14:12:31.945Z,10.87
2018-12-27T14:15:01.086Z,15.47
2018-12-27T14:17:30.220Z,13.70
2018-12-27T14:19:59.376Z,16.63
2018-12-27T14:22:28.648Z,15.90
2018-12-27T14:24:58.314Z,14.57
2018-12-27T14:27:27.778Z,12.90
2018-12-27T14:29:56.899Z,12.93
2018-12-27T14:32:26.033Z,12.13
2018-12-27T14:34:55.177Z,14.03
2018-12-27T14:37:24.336Z,17.13
2018-12-27T14:39:53.473Z,12.93
2018-12-27T14:42:22.715Z,14.10
2018-12-27T14:44:51.875Z,15.30
2018-12-27T14:47:20.994Z,16.03
2018-12-27T14:49:50.141Z,16.00
2018-12-27T14:52:19.328Z,15.70
2018-12-27T14:54:48.475Z,11.87
2018-12-27T14:57:17.838Z,14.07
2018-12-27T14:59:47.384Z,13.17
2018-12-27T15:02:16.554Z,15.50
2018-12-27T15:04:45.657Z,15.83
2018-12-27T15:07:14.781Z,13.80
2018-12-27T15:09:43.993Z,14.03
2018-12-27T15:12:13.125Z,15.97
2018-12-27T15:14:42.317Z,12.90
2018-12-27T15:17:11.461Z,15.33
2018-12-27T15:19:40.568Z,15.63
2018-12-27T15:22:09.703Z,19.17
2018-12-27T15:24:39.268Z,13.43
2018-12-27T15:27:08.413Z,15.37
2018-12-27T15:29:37.640Z,19.03
2018-12-27T15:32:06.788Z,18.40
2018-12-27T15:34:35.909Z,14.40
2018-12-27T15:37:07.782Z,17.17
2018-12-27T15:39:37.256Z,15.43
2018-12-27T15:42:06.407Z,17.00
2018-12-27T15:44:35.588Z,17.57
2018-12-27T15:47:04.726Z,13.73
2018-12-27T15:49:33.865Z,15.80
2018-12-27T15:52:03.016Z,15.13
2018-12-27T15:54:32.149Z,15.17
2018-12-27T15:57:01.276Z,21.50
2018-12-27T15:59:30.397Z,15.27
2018-12-27T16:01:59.546Z,17.40
2018-12-27T16:04:28.649Z,15.37
2018-12-27T16:07:01.769Z,20.37
2018-12-27T16:09:28.789Z,18.83
2018-12-27T16:11:57.937Z,20.20
2018-12-27T16:14:27.036Z,16.10
2018-12-27T16:16:56.189Z,16.40
2018-12-27T16:19:25.308Z,17.43
2018-12-27T16:21:54.447Z,18.33
2018-12-27T16:24:23.580Z,15.13
2018-12-27T16:26:52.723Z,22.00
2018-12-27T16:29:21.845Z,19.50
2018-12-27T16:31:51.272Z,18.70
2018-12-27T16:34:20.386Z,21.33
2018-12-27T16:36:49.505Z,22.47
2018-12-27T16:39:18.871Z,18.63
2018-12-27T16:41:47.990Z,20.50
2018-12-27T16:44:17.109Z,20.20
2018-12-27T16:46:46.563Z,19.47
2018-12-27T16:49:15.677Z,26.10
2018-12-27T16:51:44.768Z,20.83
2018-12-27T16:54:13.906Z,23.80
2018-12-27T16:56:43.048Z,22.87
2018-12-27T16:59:14.193Z,21.30
2018-12-27T17:01:43.326Z,20.10
2018-12-27T17:04:12.692Z,20.57
2018-12-27T17:06:41.849Z,19.53
2018-12-27T17:09:10.959Z,19.23
2018-12-27T17:11:40.079Z,19.27
2018-12-27T17:14:09.228Z,17.37
2018-12-27T17:16:38.489Z,27.27
2018-12-27T17:19:07.644Z,17.40
2018-12-27T17:21:36.795Z,19.77
2018-12-27T17:24:05.945Z,20.33
2018-12-27T17:26:35.048Z,18.73
2018-12-27T17:29:05.265Z,17.57
2018-12-27T17:31:34.418Z,17.20
2018-12-27T17:34:22.649Z,18.13
2018-12-27T17:36:52.157Z,18.93
2018-12-27T17:39:23.636Z,18.07
2018-12-27T17:41:53.204Z,15.67
2018-12-27T17:44:22.686Z,17.00
2018-12-27T17:46:51.923Z,18.30
2018-12-27T17:49:21.120Z,19.00
2018-12-27T17:51:50.572Z,21.10
2018-12-27T17:54:19.741Z,18.33
2018-12-27T17:56:48.946Z,19.30
2018-12-27T17:59:18.170Z,18.00
2018-12-27T18:01:47.387Z,24.70
2018-12-27T18:04:16.696Z,19.70
2018-12-27T18:06:45.871Z,19.00
2018-12-27T18:09:15.020Z,19.07
2018-12-27T18:11:44.212Z,18.67
2018-12-27T18:14:13.500Z,19.47
2018-12-27T18:16:43.044Z,17.77
2018-12-27T18:19:12.849Z,20.00
2018-12-27T18:21:42.000Z,15.77
2018-12-27T18:24:11.122Z,18.63
2018-12-27T18:26:40.381Z,17.60
2018-12-27T18:29:09.895Z,18.13
2018-12-27T18:31:39.030Z,19.70
2018-12-27T18:34:08.476Z,20.63
2018-12-27T18:36:38.136Z,18.20
2018-12-27T18:39:07.771Z,17.90
2018-12-27T18:41:36.996Z,16.47
2018-12-27T18:44:06.497Z,16.73
2018-12-27T18:46:35.619Z,16.73
2018-12-27T18:49:04.755Z,16.87
2018-12-27T18:51:33.976Z,20.47
2018-12-27T18:54:03.135Z,19.70
2018-12-27T18:56:32.393Z,20.03
2018-12-27T18:59:01.610Z,19.00
2018-12-27T19:01:30.858Z,19.63
2018-12-27T19:04:00.009Z,20.33
2018-12-27T19:06:29.198Z,17.87
2018-12-27T19:08:58.332Z,19.53
2018-12-27T19:12:03.808Z,20.67
2018-12-27T19:14:32.955Z,18.17
2018-12-27T19:17:02.185Z,22.40
2018-12-27T19:19:31.603Z,21.27
2018-12-27T19:22:24.640Z,20.10
2018-12-27T19:24:53.968Z,24.40
2018-12-27T19:27:23.132Z,21.47
2018-12-27T19:29:52.284Z,16.47
2018-12-27T19:32:21.415Z,17.67
2018-12-27T19:34:50.553Z,23.70
2018-12-27T19:37:19.693Z,26.80
2018-12-27T19:39:48.814Z,20.57
2018-12-27T19:42:17.942Z,22.00
2018-12-27T19:44:47.207Z,21.17
2018-12-27T19:47:16.310Z,19.80
2018-12-27T19:49:45.442Z,21.63
2018-12-27T19:52:14.568Z,20.00
2018-12-27T19:54:44.021Z,18.27
2018-12-27T19:57:13.153Z,20.37
2018-12-27T19:59:42.264Z,20.77
2018-12-27T20:02:11.393Z,18.67
2018-12-27T20:04:40.557Z,20.00
2018-12-27T20:07:09.660Z,19.67
2018-12-27T20:09:39.096Z,19.27
2018-12-27T20:12:08.240Z,17.60
2018-12-27T20:14:37.356Z,19.93
2018-12-27T20:17:06.508Z,19.10
2018-12-27T20:19:35.608Z,16.57
2018-12-27T20:22:05.079Z,18.20
2018-12-27T20:24:35.441Z,20.87
2018-12-27T20:27:04.934Z,20.30
2018-12-27T20:29:34.065Z,18.20
2018-12-27T20:32:03.260Z,18.63
2018-12-27T20:34:32.420Z,19.17
2018-12-27T20:37:01.540Z,19.93
2018-12-27T20:39:30.710Z,21.00
2018-12-27T20:42:01.548Z,19.40
2018-12-27T20:44:30.716Z,19.50
2018-12-27T20:46:59.880Z,20.73
2018-12-27T20:49:29.024Z,19.73
2018-12-27T20:51:58.153Z,21.23
2018-12-27T20:54:27.344Z,19.53
2018-12-27T20:56:56.481Z,19.03
2018-12-27T20:59:25.664Z,18.77
2018-12-27T21:01:54.777Z,22.23
2018-12-27T21:04:23.937Z,21.90
2018-12-27T21:06:53.052Z,17.67
2018-12-27T21:09:22.244Z,20.77
2018-12-27T21:11:51.815Z,20.77
2018-12-27T21:14:21.000Z,19.33
2018-12-27T21:16:50.123Z,19.87
2018-12-27T21:19:20.281Z,18.13
2018-12-27T21:21:49.522Z,19.47
2018-12-27T21:24:18.672Z,22.27
2018-12-27T21:26:47.801Z,24.70
2018-12-27T21:29:17.091Z,21.60
2018-12-27T21:31:46.501Z,20.13
2018-12-27T21:34:15.657Z,17.60
2018-12-27T21:36:44.805Z,18.67
2018-12-27T21:39:13.956Z,21.00
2018-12-27T21:41:43.185Z,18.97
2018-12-27T21:44:12.293Z,20.20
2018-12-27T21:46:41.408Z,21.13
2018-12-27T21:49:10.649Z,21.73
2018-12-27T21:51:39.760Z,21.23
2018-12-27T21:54:08.969Z,19.90
2018-12-27T21:56:38.365Z,18.97
2018-12-27T21:59:08.577Z,20.63
2018-12-27T22:01:37.712Z,19.53
2018-12-27T22:04:06.855Z,18.37
2018-12-27T22:06:35.958Z,24.57
2018-12-27T22:09:07.259Z,18.63
2018-12-27T22:11:36.380Z,19.80
2018-12-27T22:14:05.575Z,21.43
2018-12-27T22:16:35.181Z,19.87
2018-12-27T22:19:04.283Z,20.50
2018-12-27T22:21:33.404Z,20.73
2018-12-27T22:24:02.570Z,23.00
2018-12-27T22:26:31.732Z,19.60
2018-12-27T22:29:00.883Z,20.37
2018-12-27T22:31:30.007Z,21.27
2018-12-27T22:33:59.142Z,18.07
2018-12-27T22:36:28.259Z,19.70
2018-12-27T22:38:57.384Z,17.47
2018-12-27T22:41:26.500Z,20.63
2018-12-27T22:43:55.627Z,20.50
2018-12-27T22:46:24.733Z,22.33
2018-12-27T22:48:53.856Z,22.73
2018-12-27T22:51:23.081Z,22.40
2018-12-27T22:53:52.237Z,23.60
2018-12-27T22:56:21.412Z,22.97
2018-12-27T22:58:50.808Z,22.07
2018-12-27T23:01:20.029Z,22.47
2018-12-27T23:03:49.136Z,22.87
2018-12-27T23:06:18.273Z,26.57
2018-12-27T23:08:47.444Z,21.50
2018-12-27T23:11:16.583Z,22.23
2018-12-27T23:13:45.729Z,26.57
2018-12-27T23:16:14.901Z,24.50
2018-12-27T23:18:44.023Z,27.47
2018-12-27T23:21:13.145Z,24.13
2018-12-27T23:23:42.304Z,22.97
2018-12-27T23:26:11.466Z,28.47
2018-12-27T23:28:40.628Z,26.07
2018-12-27T23:31:09.772Z,24.33
2018-12-27T23:33:38.892Z,25.37
2018-12-27T23:36:08.068Z,26.57
2018-12-27T23:38:37.649Z,23.80
2018-12-27T23:41:07.889Z,25.30
2018-12-27T23:43:37.030Z,25.43
2018-12-27T23:46:06.173Z,29.27
2018-12-27T23:48:35.280Z,25.87
2018-12-27T23:51:04.413Z,29.63
2018-12-27T23:53:33.555Z,25.07
2018-12-27T23:56:02.672Z,33.63
2018-12-27T23:58:31.800Z,24.40
